Hovedside
METAR-TAF:

METAR-TAF

Lufthavner :

Bornholms lufthavn

Rønne, Danmark

breddegrad: 55-04N, lengdegrad: 014-45E, høyde over havet: 16 m

Gjeldene værobservasjon

Denne rapporten ble laget for 29 minutter siden, klokken 18:20 UTC
Vind 10 kt fra Øst
Temperatur 5°C
Luftfuktighet 75%
Trykk 1029 hPa
Sikt 10 km eller mer

METAR: EKRN 191820Z AUTO 08010KT 9999NDV FEW036/// BKN059/// 05/01 Q1029

Tid: 19:49 (18:49 UTC)

Varsel

Denne rapporten ble laget for 1 time og 42 minutter siden, klokken 17:07 UTC
Varsel gyldig fra 19. klokken 18 UTC til 19. klokken 23 UTC
Vind 12 kt fra Øst-nordøst
Sikt 10 km eller mer
Spredte skyer i en høyde av 2000 ft
Midlertidig
fra 19. klokken 18 UTC til 19. klokken 23 UTC
Brutte skyer i en høyde av 1200 ft, Bygeskyer.
regnbyger

TAF: EKRN 191707Z 1918/1923 07012KT 9999 SCT020 TEMPO 1918/1923 SHRA BKN012CB

Værobservasjoner og værvarsel for over 4000 flyplasser (METAR- og TAF-rapporter).

Tilgjengelige stasjoner er representert av de røde og gule prikkene på kartet.

Hold musepekeren over prikken for å se navnet på stasjonen.

Klikk så for å se værobservasjoner og -varsler.

For å forandre kartet kan du klikke på den grønne knappen med svart kryss for å zoome inn, på den grønne knappen med strek for å zoome ut, eller på de grønne pilene for å se tilstøtende kart.


METAR-TAF: